createdAt,value
2022-08-16T00:00:22.645Z,0
2022-08-16T00:05:03.060Z,0
2022-08-16T00:10:03.138Z,0
2022-08-16T00:15:02.840Z,0
2022-08-16T00:20:04.256Z,0
2022-08-16T00:25:03.286Z,0
2022-08-16T00:30:29.399Z,0
2022-08-16T00:35:16.061Z,0
2022-08-16T00:40:03.391Z,0
2022-08-16T00:45:09.740Z,0
2022-08-16T00:50:11.630Z,0
2022-08-16T00:55:08.636Z,0
2022-08-16T01:00:03.284Z,0
2022-08-16T01:05:12.070Z,0
2022-08-16T01:10:17.098Z,0
2022-08-16T01:15:03.117Z,0
2022-08-16T01:20:30.801Z,0
2022-08-16T01:25:03.347Z,0
2022-08-16T01:30:04.076Z,0
2022-08-16T01:35:04.586Z,0
2022-08-16T01:40:07.852Z,0
2022-08-16T01:45:02.808Z,0
2022-08-16T01:51:16.251Z,0
2022-08-16T01:55:04.039Z,0
2022-08-16T02:00:02.454Z,0
2022-08-16T02:05:03.827Z,0
2022-08-16T02:10:03.235Z,0
2022-08-16T02:15:02.639Z,0
2022-08-16T02:20:12.001Z,0
2022-08-16T02:25:03.311Z,0
2022-08-16T02:30:05.993Z,0
2022-08-16T02:35:02.675Z,0
2022-08-16T02:40:03.041Z,0
2022-08-16T02:45:05.469Z,0
2022-08-16T02:51:04.269Z,0
2022-08-16T02:55:05.409Z,0
2022-08-16T03:00:35.221Z,0
2022-08-16T03:05:03.178Z,0
2022-08-16T03:10:02.513Z,0.11
2022-08-16T03:15:03.464Z,0.34
2022-08-16T03:20:03.341Z,1.02
2022-08-16T03:25:03.580Z,2.26
2022-08-16T03:30:02.498Z,5.32
2022-08-16T03:35:03.350Z,5
2022-08-16T03:40:03.624Z,13.33
2022-08-16T03:45:04.776Z,28.33
2022-08-16T03:50:03.238Z,53.33
2022-08-16T03:55:03.706Z,88.33
2022-08-16T04:00:06.152Z,136.67
2022-08-16T04:05:04.414Z,196.67
2022-08-16T04:10:38.238Z,265
2022-08-16T04:15:02.844Z,350
2022-08-16T04:20:06.710Z,440
2022-08-16T04:25:04.121Z,640
2022-08-16T04:30:11.173Z,751.67
2022-08-16T04:35:15.601Z,870
2022-08-16T04:40:06.330Z,988.33
2022-08-16T04:45:03.315Z,1126.67
2022-08-16T04:50:02.785Z,1196.67
2022-08-16T04:55:04.526Z,1408.33
2022-08-16T05:00:34.070Z,1545
2022-08-16T05:05:03.162Z,1631.67
2022-08-16T05:10:23.073Z,2163.33
2022-08-16T05:15:03.348Z,2376.67
2022-08-16T05:21:09.821Z,3233.33
2022-08-16T05:25:09.599Z,2996.67
2022-08-16T05:30:37.273Z,3401.67
2022-08-16T05:35:02.542Z,3633.33
2022-08-16T05:40:06.529Z,4175
2022-08-16T05:45:07.178Z,5021.67
2022-08-16T05:50:02.873Z,4710
2022-08-16T05:55:04.269Z,4101.67
2022-08-16T06:00:09.435Z,4146.67
2022-08-16T06:05:03.962Z,4348.33
2022-08-16T06:10:02.409Z,4580
2022-08-16T06:15:10.472Z,5050
2022-08-16T06:20:03.365Z,5270
2022-08-16T06:25:04.730Z,5305
2022-08-16T06:30:04.827Z,5300
2022-08-16T06:35:03.459Z,5968.33
2022-08-16T06:40:03.963Z,5668.33
2022-08-16T06:45:03.022Z,6051.67
2022-08-16T06:50:05.953Z,6766.67
2022-08-16T06:55:04.309Z,7898.33
2022-08-16T07:00:25.139Z,10800
2022-08-16T07:05:02.869Z,10993.33
2022-08-16T07:10:09.729Z,10165
2022-08-16T07:15:08.700Z,12683.33
2022-08-16T07:20:47.600Z,27660
2022-08-16T07:25:03.107Z,29173.33
2022-08-16T07:30:04.892Z,13638.33
2022-08-16T07:35:02.678Z,27390
2022-08-16T07:40:11.763Z,29073.33
2022-08-16T07:45:02.835Z,29733.33
2022-08-16T07:50:07.968Z,31163.33
2022-08-16T07:55:04.132Z,28573.33
2022-08-16T08:00:02.736Z,35326.67
2022-08-16T08:05:04.813Z,35300
2022-08-16T08:10:05.041Z,36080
2022-08-16T08:15:04.391Z,40710
2022-08-16T08:20:04.475Z,48510
2022-08-16T08:25:04.005Z,68369.3
2022-08-16T08:31:01.731Z,58091.17
2022-08-16T08:35:04.510Z,44546.67
2022-08-16T08:40:03.032Z,41216.67
2022-08-16T08:45:02.406Z,38400
2022-08-16T08:50:04.853Z,40160
2022-08-16T08:55:13.272Z,40320
2022-08-16T09:00:14.128Z,42090
2022-08-16T09:05:16.157Z,46566.67
2022-08-16T09:10:21.779Z,45243.33
2022-08-16T09:15:02.958Z,49520
2022-08-16T09:20:05.333Z,48180
2022-08-16T09:25:10.991Z,57774.92
2022-08-16T09:30:44.454Z,62285.08
2022-08-16T09:35:02.776Z,60572.66
2022-08-16T09:40:44.033Z,58220.55
2022-08-16T09:45:18.734Z,58409.22
2022-08-16T09:50:12.167Z,61923.91
2022-08-16T09:55:04.725Z,62058.67
2022-08-16T10:00:02.709Z,61638.2
2022-08-16T10:05:02.836Z,62195.23
2022-08-16T10:10:03.451Z,65496.09
2022-08-16T10:15:03.049Z,59278.91
2022-08-16T10:20:05.209Z,60705.62
2022-08-16T10:25:04.322Z,65558.98
2022-08-16T10:30:30.253Z,70119.45
2022-08-16T10:35:02.614Z,71294.61
2022-08-16T10:40:03.861Z,74033.05
2022-08-16T10:45:02.810Z,75997.03
2022-08-16T10:50:03.285Z,76018.59
2022-08-16T11:00:03.130Z,60860.16
2022-08-16T11:05:10.932Z,65571.56
2022-08-16T11:11:18.444Z,38530
2022-08-16T11:15:18.612Z,46843.33
2022-08-16T11:20:49.587Z,6568.33
2022-08-16T11:26:24.597Z,68090.78
2022-08-16T11:30:02.639Z,67149.22
2022-08-16T11:35:15.963Z,74290
2022-08-16T11:40:05.176Z,75912.58
2022-08-16T11:45:04.791Z,75249.53
2022-08-16T11:50:02.708Z,74670.94
2022-08-16T11:55:03.488Z,70994.53
2022-08-16T12:00:03.238Z,77824.45
2022-08-16T12:05:02.675Z,70065.55
2022-08-16T12:10:02.592Z,9380
2022-08-16T12:15:04.326Z,79955.55
2022-08-16T12:20:05.120Z,79581.8
2022-08-16T12:25:04.765Z,72620.7
2022-08-16T12:30:03.290Z,7580
2022-08-16T12:35:03.298Z,30013.33
2022-08-16T12:40:03.570Z,67393.59
2022-08-16T12:45:03.125Z,67071.95
2022-08-16T12:50:03.180Z,67163.59
2022-08-16T12:55:03.773Z,66450.23
2022-08-16T13:00:02.439Z,6085
2022-08-16T13:05:03.697Z,6540
2022-08-16T13:10:39.176Z,75959.3
2022-08-16T13:15:03.441Z,66703.59
2022-08-16T13:20:12.186Z,61210.55
2022-08-16T13:25:09.043Z,49040
2022-08-16T13:30:42.214Z,46600
2022-08-16T13:35:03.406Z,5076.67
2022-08-16T13:40:06.003Z,31900
2022-08-16T13:45:02.597Z,46450
2022-08-16T13:50:03.249Z,5650
2022-08-16T13:55:18.278Z,4416.67
2022-08-16T14:00:04.986Z,3840
2022-08-16T14:05:06.070Z,45240
2022-08-16T14:10:04.032Z,46310
2022-08-16T14:15:03.098Z,43656.67
2022-08-16T14:20:02.760Z,40863.33
2022-08-16T14:25:10.615Z,40616.67
2022-08-16T14:30:03.250Z,37136.67
2022-08-16T14:35:04.244Z,33570
2022-08-16T14:40:04.062Z,29806.67
2022-08-16T14:45:03.349Z,27490
2022-08-16T14:50:05.953Z,13266.67
2022-08-16T14:55:03.482Z,12845
2022-08-16T15:00:06.574Z,11845
2022-08-16T15:05:03.331Z,11101.67
2022-08-16T15:10:04.110Z,11508.33
2022-08-16T15:15:16.318Z,11898.33
2022-08-16T15:20:02.401Z,28456.67
2022-08-16T15:25:03.280Z,33676.67
2022-08-16T15:31:00.765Z,34053.33
2022-08-16T15:35:04.771Z,13005
2022-08-16T15:40:02.934Z,9791.67
2022-08-16T15:45:13.588Z,7908.33
2022-08-16T15:50:04.972Z,6720
2022-08-16T15:55:36.151Z,6135
2022-08-16T16:00:15.958Z,6298.33
2022-08-16T16:05:05.053Z,6295
2022-08-16T16:10:03.374Z,7948.33
2022-08-16T16:15:03.353Z,8021.67
2022-08-16T16:20:03.580Z,8748.33
2022-08-16T16:25:04.699Z,7253.33
2022-08-16T16:30:33.629Z,5873.33
2022-08-16T16:35:03.137Z,4765
2022-08-16T16:40:03.251Z,4385
2022-08-16T16:45:03.300Z,3983.33
2022-08-16T16:50:03.263Z,3716.67
2022-08-16T16:55:04.174Z,3636.67
2022-08-16T17:00:38.847Z,3100
2022-08-16T17:05:03.244Z,2875
2022-08-16T17:10:02.860Z,2715
2022-08-16T17:15:02.700Z,2550
2022-08-16T17:20:03.332Z,2340
2022-08-16T17:25:07.786Z,1648.33
2022-08-16T17:30:17.099Z,1765
2022-08-16T17:35:18.290Z,1685
2022-08-16T17:40:58.086Z,1591.67
2022-08-16T17:45:03.013Z,1446.67
2022-08-16T17:50:03.275Z,1148.33
2022-08-16T17:55:03.878Z,1011.67
2022-08-16T18:00:02.926Z,913.33
2022-08-16T18:05:02.379Z,738.33
2022-08-16T18:10:04.808Z,551.67
2022-08-16T18:15:02.497Z,426.67
2022-08-16T18:20:02.643Z,295
2022-08-16T18:25:03.411Z,213.33
2022-08-16T18:30:03.183Z,141.67
2022-08-16T18:35:02.443Z,96.67
2022-08-16T18:40:03.202Z,60
2022-08-16T18:45:02.878Z,35
2022-08-16T18:50:03.466Z,16.67
2022-08-16T18:55:15.208Z,6.67
2022-08-16T19:00:02.792Z,7.47
2022-08-16T19:05:03.265Z,3.28
2022-08-16T19:10:02.548Z,1.47
2022-08-16T19:15:03.188Z,0.57
2022-08-16T19:20:10.676Z,0.23
2022-08-16T19:25:04.210Z,0
2022-08-16T19:30:03.321Z,0
2022-08-16T19:35:02.517Z,0
2022-08-16T19:40:03.564Z,0
2022-08-16T19:45:03.028Z,0
2022-08-16T19:50:02.587Z,0
2022-08-16T19:55:04.413Z,0
2022-08-16T20:00:11.760Z,0
2022-08-16T20:05:03.337Z,0
2022-08-16T20:10:03.098Z,0
2022-08-16T20:15:02.412Z,0
2022-08-16T20:20:03.346Z,0
2022-08-16T20:30:05.527Z,0
2022-08-16T20:35:02.972Z,0
2022-08-16T20:40:36.237Z,0
2022-08-16T20:45:02.822Z,0
2022-08-16T20:50:03.250Z,0
2022-08-16T20:55:03.714Z,0
2022-08-16T21:00:02.603Z,0
2022-08-16T21:05:04.719Z,0
2022-08-16T21:10:02.851Z,0
2022-08-16T21:15:03.395Z,0
2022-08-16T21:20:03.129Z,0
2022-08-16T21:25:02.789Z,0
2022-08-16T21:30:03.460Z,0
2022-08-16T21:35:03.031Z,0
2022-08-16T21:40:02.848Z,0
2022-08-16T21:45:02.618Z,0
2022-08-16T21:50:03.227Z,0
2022-08-16T21:55:04.344Z,0
2022-08-16T22:00:03.932Z,0
2022-08-16T22:05:03.171Z,0
2022-08-16T22:11:09.923Z,0
2022-08-16T22:15:02.841Z,0
2022-08-16T22:20:03.464Z,0
2022-08-16T22:25:02.712Z,0
2022-08-16T22:30:08.934Z,0
2022-08-16T22:35:14.678Z,0
2022-08-16T22:40:03.745Z,0
2022-08-16T22:45:02.859Z,0
2022-08-16T22:50:02.697Z,0
2022-08-16T22:55:04.277Z,0
2022-08-16T23:00:02.964Z,0
2022-08-16T23:05:02.308Z,0
2022-08-16T23:10:03.237Z,0
2022-08-16T23:15:04.004Z,0
2022-08-16T23:20:02.535Z,0
2022-08-16T23:25:03.163Z,0
2022-08-16T23:30:03.241Z,0
2022-08-16T23:35:02.851Z,0
2022-08-16T23:40:02.647Z,0
2022-08-16T23:45:02.290Z,0
2022-08-16T23:50:04.107Z,0
2022-08-16T23:55:03.792Z,0
